Time;durP1;ratioP1;P1;durP2;ratioP2;P2;SDS_P1;SDS_P2;PMS_P1;PMS_P2;Temp;Humidity;BMP_temperature;BMP_pressure;BME280_temperature;BME280_humidity;BME280_pressure;Samples;Min_cycle;Max_cycle;Signal;HPM_P1;HPM_P2
2022/12/15 00:38:42;;;;;;;24.45;12.07;;;;;;;-143.48;74.52;118439.88;5054845;28;20047;-67
2022/12/15 00:41:08;;;;;;;27.27;13.27;;;;;;;-143.48;74.41;118439.88;5054572;28;20028;-67
2022/12/15 00:43:34;;;;;;;26.63;12.23;;;;;;;-143.48;74.14;118439.88;5054431;28;20029;-69
2022/12/15 00:48:45;;;;;;;26.83;12.32;;;;;;;-143.48;73.91;118439.88;5054735;28;20122;-67
2022/12/15 00:51:12;;;;;;;25.13;12.25;;;;;;;-143.48;74.33;118439.88;5054298;28;20032;-67
2022/12/15 01:21:09;;;;;;;29.73;12.18;;;;;;;-143.48;74.77;118439.88;5053821;28;20118;-67
2022/12/15 01:23:36;;;;;;;25.33;12.02;;;;;;;-143.48;75.03;118439.88;5052917;28;20052;-67
2022/12/15 01:26:01;;;;;;;26.52;12.65;;;;;;;-143.48;75.42;118439.88;5053644;28;20062;-67
2022/12/15 01:28:27;;;;;;;30.15;12.68;;;;;;;-143.48;75.40;118439.88;5053679;28;20097;-67
2022/12/15 01:30:52;;;;;;;24.73;12.65;;;;;;;-143.48;75.64;118439.88;5035802;28;20031;-67
2022/12/15 01:33:19;;;;;;;27.95;12.13;;;;;;;-143.48;75.51;118439.88;5053589;28;20028;-67
2022/12/15 01:35:44;;;;;;;30.40;12.57;;;;;;;-143.48;75.65;118439.88;5053555;28;20025;-68
2022/12/15 01:38:10;;;;;;;30.55;12.63;;;;;;;-143.48;75.75;118439.88;5053426;28;20486;-67
2022/12/15 01:40:45;;;;;;;23.33;11.23;;;;;;;-143.48;75.99;118439.88;5053404;28;20095;-67
2022/12/15 01:43:26;;;;;;;25.48;12.80;;;;;;;-143.48;76.01;118439.88;5035460;28;20021;-67
2022/12/15 01:45:57;;;;;;;29.67;12.40;;;;;;;-143.48;76.03;118439.88;5052040;28;20091;-67
2022/12/15 01:48:32;;;;;;;27.52;13.02;;;;;;;-143.48;75.83;118439.88;5051997;28;20017;-67
2022/12/15 01:51:04;;;;;;;32.10;12.23;;;;;;;-143.48;76.10;118439.88;5053297;28;20025;-67
2022/12/15 01:53:39;;;;;;;23.73;12.17;;;;;;;-143.48;76.05;118439.88;5053321;28;20054;-67
2022/12/15 01:56:08;;;;;;;28.23;12.73;;;;;;;-143.48;76.88;118439.88;5053142;28;20031;-67
2022/12/15 01:58:35;;;;;;;25.65;12.95;;;;;;;-143.48;76.62;118439.88;5035779;28;20021;-67
2022/12/15 02:01:02;;;;;;;25.90;12.85;;;;;;;-143.48;77.01;118439.88;5054567;28;20480;-67
2022/12/15 02:03:28;;;;;;;28.98;12.23;;;;;;;-143.48;77.59;118439.88;5035578;28;20480;-67
2022/12/15 02:05:54;;;;;;;25.08;12.00;;;;;;;-143.48;77.30;118439.88;5053083;28;20063;-68
2022/12/15 02:08:20;;;;;;;24.67;11.98;;;;;;;-143.48;77.45;118439.88;5052928;28;20060;-68
2022/12/15 02:10:56;;;;;;;27.63;11.77;;;;;;;-143.48;77.35;118439.88;5053124;28;20056;-68
2022/12/15 02:13:48;;;;;;;25.40;11.70;;;;;;;-143.48;78.37;118439.88;5052935;28;20107;-68
2022/12/15 02:16:22;;;;;;;27.85;12.27;;;;;;;-143.48;78.16;118439.88;5049691;28;20037;-67
2022/12/15 02:19:15;;;;;;;25.40;11.88;;;;;;;-143.48;78.76;118439.88;5052919;28;20029;-67
2022/12/15 02:22:02;;;;;;;26.50;11.38;;;;;;;-143.48;78.27;118439.88;5052800;28;20025;-67
2022/12/15 02:25:05;;;;;;;27.52;11.65;;;;;;;-143.48;78.80;118439.88;5052817;28;20037;-67
2022/12/15 02:27:54;;;;;;;27.42;11.68;;;;;;;-143.48;78.41;118439.88;5050387;28;20065;-67
2022/12/15 02:30:34;;;;;;;24.13;10.88;;;;;;;-143.48;77.93;118439.88;5052776;28;20052;-67
2022/12/15 02:33:02;;;;;;;24.58;11.30;;;;;;;-143.48;78.86;118439.88;5052764;28;20021;-68
2022/12/15 02:36:27;;;;;;;28.63;11.68;;;;;;;-143.48;79.63;118439.88;5055456;28;20494;-67
2022/12/15 02:38:52;;;;;;;26.02;10.38;;;;;;;-143.48;79.02;118439.88;4937441;29;20059;-67
2022/12/15 02:41:34;;;;;;;23.45;11.63;;;;;;;-143.48;79.92;118439.88;5031598;28;20068;-67
2022/12/15 02:44:02;;;;;;;22.30;11.73;;;;;;;-143.48;79.99;118439.88;5056691;28;20083;-67
2022/12/15 02:46:44;;;;;;;30.48;11.40;;;;;;;-143.48;79.91;118439.88;5056581;28;20036;-67
2022/12/15 02:49:24;;;;;;;24.63;11.10;;;;;;;-143.48;79.85;118439.88;5056669;28;20063;-67
2022/12/15 02:52:27;;;;;;;24.13;11.93;;;;;;;-143.48;80.33;118439.88;5056776;28;20132;-68
2022/12/15 02:55:01;;;;;;;26.85;11.20;;;;;;;-143.48;80.06;118439.88;5056533;28;20468;-67
2022/12/15 02:57:44;;;;;;;24.05;11.07;;;;;;;-143.48;80.13;118439.88;5056430;28;20476;-67
2022/12/15 03:00:11;;;;;;;25.60;11.75;;;;;;;-143.48;81.12;118439.88;5038508;28;20206;-67
2022/12/15 03:02:40;;;;;;;22.45;10.95;;;;;;;-143.48;80.97;118439.88;5056266;28;20025;-67
2022/12/15 03:05:07;;;;;;;29.30;11.93;;;;;;;-143.48;80.17;118439.88;5038358;28;20029;-67
2022/12/15 03:07:32;;;;;;;24.92;12.00;;;;;;;-143.48;79.93;118439.88;5056401;28;20029;-67
2022/12/15 03:10:01;;;;;;;22.67;11.13;;;;;;;-143.48;80.06;118439.88;5056193;28;20025;-67
2022/12/15 03:12:26;;;;;;;25.02;11.38;;;;;;;-143.48;79.79;118439.88;5038193;28;20502;-67
2022/12/15 03:14:52;;;;;;;25.13;11.82;;;;;;;-143.48;80.33;118439.88;5056165;28;20053;-67
2022/12/15 03:17:18;;;;;;;24.13;11.27;;;;;;;-143.48;80.13;118439.88;5038227;28;20067;-67
2022/12/15 03:19:43;;;;;;;25.30;11.45;;;;;;;-143.48;79.99;118439.88;5038181;28;20065;-67
2022/12/15 03:22:08;;;;;;;23.13;11.13;;;;;;;-143.48;80.06;118439.88;5055776;28;20031;-68
2022/12/15 03:24:34;;;;;;;22.27;10.35;;;;;;;-143.48;80.55;118439.88;5038054;28;20067;-68
2022/12/15 03:26:59;;;;;;;23.77;11.15;;;;;;;-143.48;80.45;118439.88;5055854;28;20025;-67
2022/12/15 03:29:24;;;;;;;23.65;11.18;;;;;;;-143.48;80.78;118439.88;5055905;28;20100;-66
2022/12/15 03:31:50;;;;;;;24.92;10.48;;;;;;;-143.48;81.37;118439.88;5055810;28;20214;-67
2022/12/15 03:34:15;;;;;;;26.08;11.05;;;;;;;-143.48;80.79;118439.88;5037928;28;20036;-68
2022/12/15 03:36:41;;;;;;;24.60;11.02;;;;;;;-143.48;80.52;118439.88;5055741;28;20547;-68
2022/12/15 03:39:06;;;;;;;20.38;10.27;;;;;;;-143.48;81.67;118439.88;5055772;28;20025;-65
2022/12/15 03:41:32;;;;;;;23.08;10.30;;;;;;;-143.48;81.33;118439.88;5037730;28;20021;-67
2022/12/15 03:43:57;;;;;;;19.60;10.18;;;;;;;-143.48;81.68;118439.88;5055596;28;20476;-67
2022/12/15 03:46:23;;;;;;;21.23;10.55;;;;;;;-143.48;81.81;118439.88;5054680;28;20459;-67
2022/12/15 03:48:48;;;;;;;25.85;10.80;;;;;;;-143.48;81.90;118439.88;5055540;28;20100;-67
2022/12/15 03:51:13;;;;;;;23.42;10.90;;;;;;;-143.48;81.84;118439.88;5055451;28;20020;-67
2022/12/15 03:53:39;;;;;;;23.25;10.23;;;;;;;-143.48;81.97;118439.88;5055351;28;20108;-67
2022/12/15 03:56:05;;;;;;;22.02;10.25;;;;;;;-143.48;81.86;118439.88;5055514;28;20550;-67
2022/12/15 03:58:30;;;;;;;25.15;11.27;;;;;;;-143.48;81.76;118439.88;5055262;28;20025;-67
2022/12/15 04:00:56;;;;;;;19.95;10.18;;;;;;;-143.48;82.09;118439.88;5055146;28;20389;-68
2022/12/15 04:03:21;;;;;;;23.85;11.10;;;;;;;-143.48;82.42;118439.88;5055111;28;20127;-67
2022/12/15 04:05:47;;;;;;;24.00;10.93;;;;;;;-143.48;82.72;118439.88;5055177;28;20033;-67
2022/12/15 04:08:12;;;;;;;23.90;10.80;;;;;;;-143.48;82.23;118439.88;5055013;28;20025;-67
2022/12/15 04:10:37;;;;;;;23.52;11.23;;;;;;;-143.48;83.12;118439.88;5037341;28;20128;-67
2022/12/15 04:13:08;;;;;;;22.08;11.15;;;;;;;-143.48;82.72;118439.88;5055074;28;20556;-67
2022/12/15 04:15:36;;;;;;;24.35;10.60;;;;;;;-143.48;82.57;118439.88;5037094;28;20037;-67
2022/12/15 04:18:04;;;;;;;21.52;10.77;;;;;;;-143.48;81.98;118439.88;5055004;28;20036;-66
2022/12/15 04:20:30;;;;;;;25.63;11.40;;;;;;;-143.48;82.09;118439.88;5054968;28;20055;-67
2022/12/15 04:22:56;;;;;;;22.30;10.93;;;;;;;-143.48;82.91;118439.88;5054645;28;20468;-67
2022/12/15 05:34:05;;;;;;;24.10;10.77;;;;;;;-143.48;82.96;118439.88;5053877;28;20108;-65
2022/12/15 05:36:31;;;;;;;25.30;11.40;;;;;;;-143.48;82.36;118439.88;5053547;28;20035;-66
2022/12/15 05:38:56;;;;;;;22.67;11.63;;;;;;;-143.48;82.72;118439.88;5053556;28;20017;-65
2022/12/15 05:41:22;;;;;;;26.90;11.68;;;;;;;-143.48;82.77;118439.88;5053415;28;20027;-66
2022/12/15 05:43:47;;;;;;;23.00;11.70;;;;;;;-143.48;82.33;118439.88;5053290;28;20021;-66
2022/12/15 05:46:13;;;;;;;19.90;11.00;;;;;;;-143.48;81.94;118439.88;5053355;28;20534;-66
2022/12/15 05:48:39;;;;;;;23.92;11.63;;;;;;;-143.48;81.62;118439.88;5053394;28;20033;-66
2022/12/15 05:51:07;;;;;;;23.20;11.15;;;;;;;-143.48;81.27;118439.88;5035377;28;20448;-66
2022/12/15 05:53:34;;;;;;;23.88;10.82;;;;;;;-143.48;81.52;118439.88;5051982;28;20151;-66
2022/12/15 05:56:04;;;;;;;24.20;11.35;;;;;;;-143.48;81.51;118439.88;5053403;28;20463;-66
2022/12/15 05:58:30;;;;;;;23.83;11.10;;;;;;;-143.48;81.65;118439.88;5053150;28;20029;-66
2022/12/15 06:01:04;;;;;;;26.70;12.30;;;;;;;-143.48;82.49;118439.88;5053089;28;20055;-66
2022/12/15 06:03:30;;;;;;;22.90;11.02;;;;;;;-143.48;82.25;118439.88;5035007;28;20429;-66
2022/12/15 06:05:56;;;;;;;22.33;12.02;;;;;;;-143.48;81.98;118439.88;5053102;28;20100;-66
2022/12/15 06:08:22;;;;;;;24.35;11.75;;;;;;;-143.48;82.06;118439.88;5035201;28;20454;-66
2022/12/15 06:10:53;;;;;;;29.08;12.30;;;;;;;-143.48;82.32;118439.88;5052648;28;20025;-66
2022/12/15 06:13:19;;;;;;;23.30;11.43;;;;;;;-143.48;83.25;118439.88;5035195;28;20024;-66
2022/12/15 06:15:57;;;;;;;27.30;12.27;;;;;;;-143.48;83.40;118439.88;5053307;28;20075;-66
2022/12/15 06:18:23;;;;;;;20.35;10.73;;;;;;;-143.48;82.50;118439.88;5035451;28;20075;-66
2022/12/15 06:20:48;;;;;;;23.90;11.68;;;;;;;-143.48;82.23;118439.88;5053060;28;20099;-66
2022/12/15 06:23:14;;;;;;;32.08;12.25;;;;;;;-143.48;82.62;118439.88;5052700;28;20480;-66
2022/12/15 06:25:39;;;;;;;22.65;11.57;;;;;;;-143.48;82.37;118439.88;5052909;28;20029;-66
2022/12/15 06:28:04;;;;;;;25.45;11.43;;;;;;;-143.48;82.32;118439.88;5052939;28;20031;-66
2022/12/15 06:30:30;;;;;;;24.10;10.88;;;;;;;-143.48;82.08;118439.88;5052846;28;20104;-66
2022/12/15 06:32:56;;;;;;;25.55;11.20;;;;;;;-143.48;82.72;118439.88;5052049;28;20070;-66
2022/12/15 06:35:21;;;;;;;21.88;11.13;;;;;;;-143.48;81.89;118439.88;5032638;28;20029;-67
2022/12/15 06:37:46;;;;;;;26.88;11.63;;;;;;;-143.48;82.32;118439.88;5033108;28;20024;-66
2022/12/15 06:40:11;;;;;;;26.48;12.18;;;;;;;-143.48;81.79;118439.88;5032778;28;20029;-67
2022/12/15 06:42:37;;;;;;;30.77;12.90;;;;;;;-143.48;82.52;118439.88;5050736;28;20064;-67
2022/12/15 06:45:03;;;;;;;31.02;13.15;;;;;;;-143.48;83.37;118439.88;5052742;28;20104;-66
2022/12/15 06:47:28;;;;;;;27.30;12.00;;;;;;;-143.48;83.57;118439.88;5052779;28;20556;-66
2022/12/15 06:49:54;;;;;;;25.90;12.02;;;;;;;-143.48;83.40;118439.88;5034898;28;20021;-67
2022/12/15 06:52:20;;;;;;;22.35;11.07;;;;;;;-143.48;82.92;118439.88;5034827;28;20215;-67
2022/12/15 06:54:45;;;;;;;22.63;11.38;;;;;;;-143.48;82.92;118439.88;5052583;28;20128;-67
2022/12/15 06:57:10;;;;;;;24.17;11.55;;;;;;;-143.48;82.83;118439.88;5052586;28;20031;-67
2022/12/15 06:59:35;;;;;;;26.08;11.65;;;;;;;-143.48;83.06;118439.88;5052658;28;20032;-67
2022/12/15 07:02:01;;;;;;;24.63;12.27;;;;;;;-143.48;83.70;118439.88;5052445;28;20025;-67
2022/12/15 07:04:26;;;;;;;25.00;11.52;;;;;;;-143.48;82.83;118439.88;5052610;28;20479;-66
2022/12/15 07:06:51;;;;;;;26.27;11.02;;;;;;;-143.48;83.49;118439.88;5052537;28;20031;-66
2022/12/15 07:09:17;;;;;;;24.23;11.80;;;;;;;-143.48;83.01;118439.88;5052577;28;20021;-66
2022/12/15 07:11:42;;;;;;;23.55;11.10;;;;;;;-143.48;83.46;118439.88;5034551;28;20075;-66
2022/12/15 07:14:08;;;;;;;25.67;11.20;;;;;;;-143.48;83.17;118439.88;5052444;28;20025;-66
2022/12/15 07:16:34;;;;;;;23.17;10.85;;;;;;;-143.48;83.24;118439.88;5052676;28;20487;-65
2022/12/15 07:19:00;;;;;;;23.70;11.23;;;;;;;-143.48;82.83;118439.88;5052412;28;20033;-67
2022/12/15 07:21:25;;;;;;;21.65;10.93;;;;;;;-143.48;82.99;118439.88;5053467;28;20032;-67
2022/12/15 07:23:50;;;;;;;24.80;11.25;;;;;;;-143.48;83.21;118439.88;5037976;28;20049;-67
2022/12/15 07:26:16;;;;;;;23.60;11.48;;;;;;;-143.48;83.82;118439.88;5056177;28;20380;-67
2022/12/15 07:28:41;;;;;;;24.20;11.63;;;;;;;-143.48;83.58;118439.88;5055895;28;20033;-67
2022/12/15 07:31:10;;;;;;;29.88;12.18;;;;;;;-143.48;82.91;118439.88;5055900;28;20025;-67
2022/12/15 07:33:36;;;;;;;24.05;12.07;;;;;;;-143.48;83.92;118439.88;5056063;28;20021;-67
2022/12/15 07:36:03;;;;;;;25.17;11.75;;;;;;;-143.48;83.19;118439.88;5055756;28;20029;-67
2022/12/15 07:38:28;;;;;;;25.23;11.93;;;;;;;-143.48;82.94;118439.88;5037837;28;20029;-67
2022/12/15 07:40:54;;;;;;;23.67;11.90;;;;;;;-143.48;83.83;118439.88;5037772;28;20499;-67
2022/12/15 07:43:20;;;;;;;25.02;11.25;;;;;;;-143.48;83.61;118439.88;5055672;28;20024;-66
2022/12/15 07:45:51;;;;;;;26.70;11.95;;;;;;;-143.48;83.63;118439.88;5037645;28;20055;-66
2022/12/15 07:48:17;;;;;;;23.75;11.45;;;;;;;-143.48;83.07;118439.88;5055701;28;20392;-67
2022/12/15 07:50:42;;;;;;;27.45;12.07;;;;;;;-143.48;83.10;118439.88;5055505;28;20020;-66
2022/12/15 07:53:07;;;;;;;27.27;12.45;;;;;;;-143.48;83.43;118439.88;5055465;28;20036;-66
2022/12/15 07:55:33;;;;;;;22.63;12.00;;;;;;;-143.48;83.92;118439.88;5055492;28;20071;-67
2022/12/15 07:57:58;;;;;;;25.42;12.02;;;;;;;-143.48;83.58;118439.88;5038401;28;20508;-68
2022/12/15 08:00:23;;;;;;;25.42;12.70;;;;;;;-143.48;82.94;118439.88;5055417;28;20052;-67
2022/12/15 08:02:49;;;;;;;22.45;12.05;;;;;;;-143.48;83.36;118439.88;5055633;28;20025;-67
2022/12/15 08:05:14;;;;;;;25.33;12.55;;;;;;;-143.48;83.04;118439.88;5055912;28;20468;-67
2022/12/15 08:07:40;;;;;;;23.70;12.13;;;;;;;-143.48;82.70;118439.88;5038298;28;20064;-67
2022/12/15 08:10:09;;;;;;;26.58;12.07;;;;;;;-143.48;82.95;118439.88;5056267;28;20021;-68
2022/12/15 08:12:34;;;;;;;27.65;11.82;;;;;;;-143.48;83.25;118439.88;5038094;28;20480;-67
2022/12/15 08:14:59;;;;;;;22.20;12.20;;;;;;;-143.48;82.21;118439.88;5037642;28;20025;-67
2022/12/15 08:17:24;;;;;;;24.77;11.70;;;;;;;-143.48;82.59;118439.88;5037152;28;20029;-67
2022/12/15 08:19:51;;;;;;;27.17;11.52;;;;;;;-143.48;82.40;118439.88;5054952;28;20025;-67
2022/12/15 08:22:16;;;;;;;25.10;11.98;;;;;;;-143.48;82.02;118439.88;5036897;28;20415;-67
2022/12/15 08:24:41;;;;;;;26.02;12.25;;;;;;;-143.48;81.80;118439.88;5036825;28;20020;-67
2022/12/15 08:27:07;;;;;;;24.10;11.95;;;;;;;-143.48;82.02;118439.88;5054642;28;20027;-65
2022/12/15 08:29:33;;;;;;;20.80;11.07;;;;;;;-143.48;81.77;118439.88;5054666;28;20102;-68
2022/12/15 08:31:59;;;;;;;23.95;11.95;;;;;;;-143.48;82.45;118439.88;5054668;28;20392;-66
2022/12/15 08:34:25;;;;;;;25.75;11.82;;;;;;;-143.48;81.97;118439.88;5036611;28;20476;-66
2022/12/15 08:36:50;;;;;;;24.60;12.10;;;;;;;-143.48;81.84;118439.88;5053669;28;20100;-67
2022/12/15 08:39:15;;;;;;;28.10;12.75;;;;;;;-143.48;82.52;118439.88;5053844;28;20151;-66
2022/12/15 08:41:41;;;;;;;30.45;12.93;;;;;;;-143.48;82.07;118439.88;5036427;28;20102;-67
2022/12/15 08:44:06;;;;;;;27.67;12.18;;;;;;;-143.48;82.73;118439.88;5054378;28;20017;-67
2022/12/15 08:46:34;;;;;;;26.05;12.95;;;;;;;-143.48;82.65;118439.88;5034991;28;20455;-67
2022/12/15 08:49:00;;;;;;;29.67;13.65;;;;;;;-143.48;82.07;118439.88;5054315;28;20024;-67
2022/12/15 08:51:28;;;;;;;30.25;13.35;;;;;;;-143.48;81.34;118439.88;5054277;28;20029;-67
2022/12/15 08:53:54;;;;;;;25.55;12.77;;;;;;;-143.48;81.35;118439.88;5054095;28;20127;-66
2022/12/15 08:56:21;;;;;;;30.67;12.98;;;;;;;-143.48;82.36;118439.88;5054238;28;20032;-66
2022/12/15 08:58:47;;;;;;;26.80;12.75;;;;;;;-143.48;81.90;118439.88;5054076;28;20112;-65
2022/12/15 09:01:19;;;;;;;28.60;13.25;;;;;;;-143.48;81.13;118439.88;5054053;28;20035;-65
2022/12/15 09:03:45;;;;;;;26.52;13.05;;;;;;;-143.48;81.10;118439.88;5053393;28;20056;-65
2022/12/15 09:06:14;;;;;;;29.48;12.68;;;;;;;-143.48;80.45;118439.88;5054038;28;20021;-65
2022/12/15 09:08:40;;;;;;;24.60;12.00;;;;;;;-143.48;80.90;118439.88;5053018;28;20032;-65
2022/12/15 09:11:05;;;;;;;27.63;12.40;;;;;;;-143.48;81.60;118439.88;5052440;28;20024;-65
2022/12/15 09:13:31;;;;;;;24.58;12.68;;;;;;;-143.48;82.60;118439.88;5054242;28;20092;-65
2022/12/15 09:15:58;;;;;;;25.00;13.05;;;;;;;-143.48;81.52;118439.88;5036457;28;20361;-65
2022/12/15 09:18:24;;;;;;;23.50;12.20;;;;;;;-143.48;81.63;118439.88;5036352;28;20086;-64
2022/12/15 09:20:49;;;;;;;27.05;12.02;;;;;;;-143.48;80.76;118439.88;5052685;28;20494;-66
2022/12/15 09:23:14;;;;;;;28.42;13.23;;;;;;;-143.48;80.87;118439.88;5036199;28;20405;-66
2022/12/15 09:25:40;;;;;;;29.27;12.73;;;;;;;-143.48;79.85;118439.88;5053943;28;20024;-66
2022/12/15 09:28:06;;;;;;;24.83;12.70;;;;;;;-143.48;79.40;118439.88;5036073;28;20083;-66
2022/12/15 09:30:31;;;;;;;24.83;11.95;;;;;;;-143.48;79.59;118439.88;5035652;28;20025;-65
2022/12/15 09:32:56;;;;;;;24.60;12.65;;;;;;;-143.48;78.52;118439.88;5053742;28;20143;-65
2022/12/15 09:35:22;;;;;;;25.27;12.70;;;;;;;-143.48;79.19;118439.88;5053878;28;20044;-65
2022/12/15 09:37:48;;;;;;;26.98;12.43;;;;;;;-143.48;79.40;118439.88;5053430;28;20079;-65
2022/12/15 09:40:13;;;;;;;23.58;12.20;;;;;;;-143.48;78.85;118439.88;5053393;28;20029;-65
2022/12/15 09:42:39;;;;;;;27.35;12.30;;;;;;;-143.48;79.17;118439.88;5034795;28;20025;-66
2022/12/15 09:45:16;;;;;;;41.33;12.88;;;;;;;-143.48;79.39;118439.88;5050524;28;20024;-65
2022/12/15 09:47:52;;;;;;;26.23;12.73;;;;;;;-143.48;79.50;118439.88;5051367;28;20487;-66
2022/12/15 09:50:24;;;;;;;27.05;12.88;;;;;;;-143.48;79.08;118439.88;5051278;28;20032;-66
2022/12/15 09:52:58;;;;;;;25.55;12.57;;;;;;;-143.48;77.66;118439.88;5051999;28;20029;-66
2022/12/15 09:55:26;;;;;;;20.67;11.32;;;;;;;-143.48;77.41;118439.88;5052347;28;20425;-66
2022/12/15 09:58:02;;;;;;;26.08;12.50;;;;;;;-143.48;76.69;118439.88;5052156;28;20097;-67
2022/12/15 10:00:39;;;;;;;22.35;11.52;;;;;;;-143.48;75.84;118439.88;5053437;28;20024;-64
2022/12/15 10:03:11;;;;;;;25.77;12.07;;;;;;;-143.48;74.25;118439.88;5035982;28;20071;-65
2022/12/15 10:05:39;;;;;;;21.05;11.20;;;;;;;-143.48;57.55;118439.88;5054955;28;20039;-65
2022/12/15 10:08:05;;;;;;;20.15;11.20;;;;;;;-143.48;51.09;118439.88;5053135;28;20025;-66
2022/12/15 10:10:33;;;;;;;19.35;11.40;;;;;;;-143.48;48.03;118439.88;5035119;28;20326;-65
2022/12/15 10:13:07;;;;;;;20.65;11.27;;;;;;;-143.48;47.27;118439.88;5053027;28;20108;-66
2022/12/15 10:15:44;;;;;;;17.27;10.57;;;;;;;-143.48;47.27;118439.88;5052958;28;20073;-66
2022/12/15 10:18:16;;;;;;;20.45;11.23;;;;;;;-143.48;45.64;118439.88;5052828;28;20067;-66
2022/12/15 10:20:42;;;;;;;20.58;10.95;;;;;;;-143.48;46.54;118439.88;5034966;28;20028;-66
2022/12/15 10:23:16;;;;;;;20.23;11.55;;;;;;;-143.48;43.66;118439.88;5034595;28;20041;-66
2022/12/15 10:25:57;;;;;;;17.30;11.57;;;;;;;-143.48;43.53;118439.88;5052837;28;20045;-67
2022/12/15 10:28:52;;;;;;;16.95;10.93;;;;;;;-143.48;42.88;118439.88;5051680;28;20475;-67
2022/12/15 10:31:29;;;;;;;21.05;11.65;;;;;;;-143.48;42.22;118439.88;5052900;28;20104;-66
2022/12/15 10:34:09;;;;;;;17.50;10.68;;;;;;;-143.48;44.66;118439.88;5053079;28;20353;-66
2022/12/15 10:36:35;;;;;;;17.52;11.38;;;;;;;-143.48;54.29;118439.88;5055413;28;20032;-66
2022/12/15 10:39:00;;;;;;;21.45;12.15;;;;;;;-143.48;50.63;118439.88;5035343;28;20396;-66
2022/12/15 10:41:30;;;;;;;20.33;12.63;;;;;;;-143.48;51.93;118439.88;5034999;28;20036;-66
2022/12/15 10:43:56;;;;;;;22.40;13.20;;;;;;;-143.48;57.91;118439.88;5053635;28;20537;-66
2022/12/15 10:46:23;;;;;;;21.42;13.57;;;;;;;-143.48;62.24;118439.88;5035366;28;20112;-66
2022/12/15 10:48:53;;;;;;;22.67;12.68;;;;;;;-143.48;64.54;118439.88;5052993;28;20028;-67
2022/12/15 10:51:24;;;;;;;22.75;13.18;;;;;;;-143.48;65.93;118439.88;5052441;28;20032;-66
2022/12/15 10:54:05;;;;;;;25.33;12.80;;;;;;;-143.48;66.20;118439.88;5053495;28;20048;-67
2022/12/15 10:56:32;;;;;;;24.50;13.18;;;;;;;-143.48;66.08;118439.88;5054122;28;20028;-66
2022/12/15 10:59:00;;;;;;;23.05;13.30;;;;;;;-143.48;66.35;118439.88;5057577;28;20036;-66
2022/12/15 11:01:28;;;;;;;28.58;13.10;;;;;;;-143.48;67.08;118439.88;5038577;28;20395;-65
2022/12/15 11:03:55;;;;;;;24.05;13.15;;;;;;;-143.48;67.14;118439.88;5054282;28;20079;-65
2022/12/15 11:06:26;;;;;;;29.30;14.43;;;;;;;-143.48;67.44;118439.88;5054508;28;20056;-66
2022/12/15 11:08:55;;;;;;;28.00;14.35;;;;;;;-143.48;67.68;118439.88;5054239;28;20059;-65
2022/12/15 11:14:26;;;;;;;22.08;12.57;;;;;;;-143.48;66.70;118439.88;5026614;28;20399;-66
2022/12/15 11:16:56;;;;;;;24.45;12.45;;;;;;;-143.48;65.18;118439.88;5036233;28;20039;-65
2022/12/15 11:19:59;;;;;;;22.73;12.18;;;;;;;-143.48;67.03;118439.88;5056162;28;20365;-66
2022/12/15 11:22:37;;;;;;;24.77;12.45;;;;;;;-143.48;68.32;118439.88;5054614;28;20053;-65
2022/12/15 11:25:26;;;;;;;29.27;12.45;;;;;;;-143.48;68.42;118439.88;5056087;28;20047;-64
2022/12/15 11:27:55;;;;;;;24.65;13.00;;;;;;;-143.48;68.42;118439.88;5055917;28;20146;-65
2022/12/15 11:30:25;;;;;;;22.77;12.60;;;;;;;-143.48;68.64;118439.88;5056076;28;20153;-65
2022/12/15 11:32:59;;;;;;;27.55;13.30;;;;;;;-143.48;68.85;118439.88;5056052;28;20030;-67
2022/12/15 11:35:59;;;;;;;23.10;12.90;;;;;;;-143.48;68.21;118439.88;5054660;28;20115;-66
2022/12/15 11:38:33;;;;;;;24.73;13.05;;;;;;;-143.48;68.53;118439.88;5053868;28;20027;-67
2022/12/15 11:41:10;;;;;;;21.45;12.18;;;;;;;-143.48;67.87;118439.88;5054222;28;20074;-67
2022/12/15 11:43:56;;;;;;;22.67;12.23;;;;;;;-143.48;67.09;118439.88;5055141;28;20025;-66
2022/12/15 11:46:26;;;;;;;29.63;13.30;;;;;;;-143.48;68.35;118439.88;5054773;28;20040;-66
2022/12/15 11:49:25;;;;;;;25.85;12.95;;;;;;;-143.48;66.70;118439.88;5053553;28;20033;-67
2022/12/15 11:52:25;;;;;;;21.90;12.43;;;;;;;-143.48;65.99;118439.88;5054707;28;20082;-66
2022/12/15 11:54:58;;;;;;;23.90;12.50;;;;;;;-143.48;65.48;118439.88;5025335;28;20244;-66
2022/12/15 11:58:09;;;;;;;23.20;13.02;;;;;;;-143.48;65.71;118439.88;5036280;28;20028;-66
2022/12/15 12:00:40;;;;;;;24.42;12.30;;;;;;;-143.48;65.72;118439.88;5031154;28;20556;-66
2022/12/15 12:03:27;;;;;;;27.80;13.27;;;;;;;-143.48;60.06;118439.88;5053862;28;20032;-66
2022/12/15 12:06:09;;;;;;;23.77;11.88;;;;;;;-143.48;45.13;118439.88;5037544;28;20511;-66
2022/12/15 12:08:51;;;;;;;20.85;11.95;;;;;;;-143.48;42.96;118439.88;5054667;28;20123;-66
2022/12/15 12:11:38;;;;;;;22.52;12.02;;;;;;;-143.48;40.80;118439.88;5055298;28;20169;-66
2022/12/15 12:14:16;;;;;;;18.73;11.77;;;;;;;-143.48;41.99;118439.88;5054198;28;20013;-65
2022/12/15 12:16:52;;;;;;;19.95;11.75;;;;;;;-143.48;51.41;118439.88;5055460;28;20029;-66
2022/12/15 12:19:26;;;;;;;19.05;11.55;;;;;;;-143.48;57.84;118439.88;5037031;28;20024;-66
2022/12/15 12:22:00;;;;;;;22.30;11.73;;;;;;;-143.48;62.44;118439.88;5054681;28;20025;-66
2022/12/15 12:24:32;;;;;;;20.60;12.05;;;;;;;-143.48;61.32;118439.88;5054508;28;20401;-66
2022/12/15 12:27:06;;;;;;;20.95;12.57;;;;;;;-143.48;63.88;118439.88;5054780;28;20036;-66
2022/12/15 12:29:43;;;;;;;23.27;12.15;;;;;;;-143.48;47.61;118439.88;5054957;28;20099;-66
2022/12/15 12:32:20;;;;;;;22.45;11.82;;;;;;;-143.48;43.38;118439.88;5054959;28;20024;-66
2022/12/15 12:35:05;;;;;;;21.40;12.40;;;;;;;-143.48;42.49;118439.88;5054673;28;20491;-66
2022/12/15 12:37:38;;;;;;;22.77;11.80;;;;;;;-143.48;42.55;118439.88;5055072;28;20029;-66
2022/12/15 12:40:43;;;;;;;20.98;11.50;;;;;;;-143.48;42.22;118439.88;5054011;28;20033;-67
2022/12/15 12:43:16;;;;;;;20.83;11.70;;;;;;;-143.48;42.02;118439.88;5028514;28;20036;-67
2022/12/15 12:45:50;;;;;;;19.23;11.10;;;;;;;-143.48;41.87;118439.88;5054950;28;20361;-69
2022/12/15 12:48:52;;;;;;;20.85;11.23;;;;;;;-143.48;41.46;118439.88;5036251;28;20503;-67
2022/12/15 12:51:33;;;;;;;19.65;10.93;;;;;;;-143.48;41.65;118439.88;5036192;28;20021;-67
2022/12/15 12:54:00;;;;;;;20.23;12.07;;;;;;;-143.48;42.86;118439.88;5053899;28;20055;-66
2022/12/15 12:56:34;;;;;;;18.92;11.85;;;;;;;-143.48;44.31;118439.88;5036487;28;20039;-67
2022/12/15 12:59:06;;;;;;;19.25;10.77;;;;;;;-143.48;46.11;118439.88;5054301;28;20029;-67
2022/12/15 13:01:33;;;;;;;18.17;10.63;;;;;;;-143.48;48.33;118439.88;5054409;28;20025;-67
2022/12/15 13:04:32;;;;;;;19.20;11.00;;;;;;;-143.48;51.05;118439.88;5053271;28;20380;-68
2022/12/15 13:07:05;;;;;;;19.85;11.50;;;;;;;-143.48;53.91;118439.88;5054203;28;20032;-65
2022/12/15 13:09:41;;;;;;;18.25;11.70;;;;;;;-143.48;56.92;118439.88;5054462;28;20021;-66
2022/12/15 13:12:43;;;;;;;29.40;12.52;;;;;;;-143.48;58.86;118439.88;5054393;28;20055;-66
2022/12/15 13:15:41;;;;;;;26.13;12.80;;;;;;;-143.48;62.82;118439.88;5036331;28;20043;-66
2022/12/15 13:18:22;;;;;;;28.20;13.93;;;;;;;-143.48;64.44;118439.88;5049324;28;20046;-65
2022/12/15 13:20:52;;;;;;;24.20;13.43;;;;;;;-143.48;65.93;118439.88;5053398;28;20088;-66
2022/12/15 13:23:20;;;;;;;24.20;14.32;;;;;;;-143.48;67.58;118439.88;5052285;28;20048;-66
2022/12/15 13:25:51;;;;;;;29.10;14.48;;;;;;;-143.48;68.31;118439.88;5053712;28;20033;-66
2022/12/15 13:28:35;;;;;;;25.85;14.00;;;;;;;-143.48;68.19;118439.88;5053218;28;20029;-66
2022/12/15 13:31:15;;;;;;;24.92;14.45;;;;;;;-143.48;69.35;118439.88;5035798;28;20059;-67